createdAt,value
2018-06-18T00:00:51.633Z,994.92
2018-06-18T00:01:51.857Z,994.88
2018-06-18T00:02:52.085Z,994.88
2018-06-18T00:03:52.317Z,994.84
2018-06-18T00:04:52.550Z,994.88
2018-06-18T00:05:52.778Z,994.84
2018-06-18T00:06:53.013Z,994.84
2018-06-18T00:07:53.242Z,994.82
2018-06-18T00:08:53.480Z,994.82
2018-06-18T00:09:53.697Z,994.83
2018-06-18T00:10:53.929Z,994.79
2018-06-18T00:11:54.160Z,994.83
2018-06-18T00:12:54.386Z,994.85
2018-06-18T00:13:54.623Z,994.86
2018-06-18T00:14:54.845Z,994.83
2018-06-18T00:15:55.074Z,994.86
2018-06-18T00:16:55.301Z,994.86
2018-06-18T00:17:55.529Z,994.85
2018-06-18T00:18:55.759Z,994.84
2018-06-18T00:19:55.991Z,994.90
2018-06-18T00:20:56.218Z,994.88
2018-06-18T00:21:56.443Z,994.95
2018-06-18T00:22:56.672Z,994.94
2018-06-18T00:23:56.901Z,994.94
2018-06-18T00:24:57.132Z,994.92
2018-06-18T00:25:57.368Z,994.92
2018-06-18T00:26:57.589Z,994.94
2018-06-18T00:27:57.819Z,994.91
2018-06-18T00:28:58.042Z,994.93
2018-06-18T00:29:58.275Z,994.93
2018-06-18T00:30:58.499Z,994.96
2018-06-18T00:31:58.735Z,994.99
2018-06-18T00:32:58.968Z,994.98
2018-06-18T00:33:59.193Z,994.99
2018-06-18T00:34:59.416Z,995.02
2018-06-18T00:35:59.642Z,995.06
2018-06-18T00:36:59.872Z,995.02
2018-06-18T00:38:00.106Z,995.08
2018-06-18T00:39:00.338Z,995.05
2018-06-18T00:40:00.566Z,995.08
2018-06-18T00:41:00.801Z,995.16
2018-06-18T00:42:01.027Z,995.18
2018-06-18T00:43:01.259Z,995.19
2018-06-18T00:44:01.478Z,995.19
2018-06-18T00:45:01.727Z,995.20
2018-06-18T00:46:01.955Z,995.16
2018-06-18T00:47:02.185Z,995.18
2018-06-18T00:48:02.412Z,995.21
2018-06-18T00:49:02.640Z,995.18
2018-06-18T00:50:02.870Z,995.21
2018-06-18T00:51:03.099Z,995.20
2018-06-18T00:52:03.326Z,995.22
2018-06-18T00:53:03.558Z,995.26
2018-06-18T00:54:03.789Z,995.28
2018-06-18T00:55:04.017Z,995.29
2018-06-18T00:56:04.249Z,995.30
2018-06-18T00:57:04.485Z,995.36
2018-06-18T00:58:04.713Z,995.39
2018-06-18T00:59:04.942Z,995.42
2018-06-18T01:00:05.172Z,995.43
2018-06-18T01:01:05.392Z,995.45
2018-06-18T01:02:05.624Z,995.46
2018-06-18T01:03:05.867Z,995.47
2018-06-18T01:04:06.074Z,995.46
2018-06-18T01:05:06.306Z,995.45
2018-06-18T01:06:06.542Z,995.43
2018-06-18T01:07:06.764Z,995.42
2018-06-18T01:08:06.993Z,995.39
2018-06-18T01:09:07.220Z,995.37
2018-06-18T01:10:07.448Z,995.39
2018-06-18T01:11:07.683Z,995.39
2018-06-18T01:12:07.909Z,995.38
2018-06-18T01:13:08.141Z,995.42
2018-06-18T01:14:08.362Z,995.46
2018-06-18T01:15:08.592Z,995.43
2018-06-18T01:16:08.817Z,995.41
2018-06-18T01:17:09.045Z,995.37
2018-06-18T01:18:09.275Z,995.36
2018-06-18T01:19:09.505Z,995.34
2018-06-18T01:20:09.725Z,995.30
2018-06-18T01:21:09.954Z,995.30
2018-06-18T01:22:10.184Z,995.29
2018-06-18T01:23:10.409Z,995.21
2018-06-18T01:24:10.640Z,995.21
2018-06-18T01:25:10.870Z,995.19
2018-06-18T01:26:11.099Z,995.18
2018-06-18T01:27:11.327Z,995.15
2018-06-18T01:28:11.560Z,995.11
2018-06-18T01:29:11.787Z,995.13
2018-06-18T01:30:12.018Z,995.08
2018-06-18T01:31:12.250Z,995.09
2018-06-18T01:32:12.477Z,995.07
2018-06-18T01:33:12.706Z,995.10
2018-06-18T01:34:12.916Z,995.10
2018-06-18T01:35:13.168Z,995.09
2018-06-18T01:36:13.393Z,995.11
2018-06-18T01:37:13.622Z,995.15
2018-06-18T01:38:13.853Z,995.14
2018-06-18T01:39:14.075Z,995.15
2018-06-18T01:40:14.307Z,995.13
2018-06-18T01:41:14.528Z,995.10
2018-06-18T01:42:14.758Z,995.10
2018-06-18T01:43:14.985Z,995.08
2018-06-18T01:44:15.217Z,995.10
2018-06-18T01:45:15.440Z,995.13
2018-06-18T01:46:15.668Z,995.14
2018-06-18T01:47:15.897Z,995.13
2018-06-18T01:48:16.128Z,995.15
2018-06-18T01:49:16.356Z,995.21
2018-06-18T01:50:16.590Z,995.18
2018-06-18T01:51:16.813Z,995.20
2018-06-18T01:52:17.042Z,995.19
2018-06-18T01:53:17.272Z,995.18
2018-06-18T01:54:17.497Z,995.21
2018-06-18T01:55:17.728Z,995.21
2018-06-18T01:56:17.956Z,995.24
2018-06-18T01:57:18.186Z,995.24
2018-06-18T01:58:18.405Z,995.32
2018-06-18T01:59:18.637Z,995.28
2018-06-18T02:00:18.866Z,995.28
2018-06-18T02:01:19.094Z,995.22
2018-06-18T02:02:19.323Z,995.22
2018-06-18T02:03:19.553Z,995.25
2018-06-18T02:04:19.792Z,995.22
2018-06-18T02:05:20.020Z,995.20
2018-06-18T02:06:20.239Z,995.20
2018-06-18T02:07:20.468Z,995.21
2018-06-18T02:08:20.696Z,995.22
2018-06-18T02:09:20.927Z,995.27
2018-06-18T02:10:21.176Z,995.25
2018-06-18T02:11:21.381Z,995.28
2018-06-18T02:12:21.610Z,995.29
2018-06-18T02:13:21.839Z,995.31
2018-06-18T02:14:22.069Z,995.34
2018-06-18T02:15:22.297Z,995.31
2018-06-18T02:16:22.531Z,995.31
2018-06-18T02:17:22.760Z,995.34
2018-06-18T02:18:22.985Z,995.35
2018-06-18T02:19:23.215Z,995.31
2018-06-18T02:20:23.446Z,995.30
2018-06-18T02:21:23.676Z,995.28
2018-06-18T02:22:23.903Z,995.25
2018-06-18T02:23:24.132Z,995.25
2018-06-18T02:24:24.349Z,995.27
2018-06-18T02:25:24.578Z,995.28
2018-06-18T02:26:24.801Z,995.28
2018-06-18T02:27:25.025Z,995.23
2018-06-18T02:28:25.264Z,995.18
2018-06-18T02:29:25.486Z,995.17
2018-06-18T02:30:25.717Z,995.16
2018-06-18T02:31:25.948Z,995.16
2018-06-18T02:32:26.193Z,995.18
2018-06-18T02:33:26.397Z,995.22
2018-06-18T02:34:26.632Z,995.27
2018-06-18T02:35:26.868Z,995.27
2018-06-18T02:36:27.088Z,995.32
2018-06-18T02:37:27.315Z,995.30
2018-06-18T02:38:27.548Z,995.26
2018-06-18T02:39:27.780Z,995.27
2018-06-18T02:40:28.004Z,995.27
2018-06-18T02:41:28.235Z,995.25
2018-06-18T02:42:28.464Z,995.25
2018-06-18T02:43:28.694Z,995.21
2018-06-18T02:44:28.916Z,995.20
2018-06-18T02:45:29.148Z,995.14
2018-06-18T02:46:29.377Z,995.08
2018-06-18T02:47:29.605Z,995.09
2018-06-18T02:48:29.840Z,995.07
2018-06-18T02:49:30.062Z,995.08
2018-06-18T02:50:30.304Z,995.08
2018-06-18T02:51:30.528Z,995.09
2018-06-18T02:52:30.757Z,995.13
2018-06-18T02:53:30.979Z,995.14
2018-06-18T02:54:31.209Z,995.17
2018-06-18T02:55:31.440Z,995.18
2018-06-18T02:56:31.672Z,995.21
2018-06-18T02:57:31.904Z,995.25
2018-06-18T02:58:32.133Z,995.25
2018-06-18T02:59:32.357Z,995.25
2018-06-18T03:00:32.590Z,995.31
2018-06-18T03:01:32.817Z,995.33
2018-06-18T03:02:33.048Z,995.35
2018-06-18T03:03:33.275Z,995.35
2018-06-18T03:04:33.505Z,995.37
2018-06-18T03:05:33.740Z,995.36
2018-06-18T03:06:33.966Z,995.34
2018-06-18T03:07:34.191Z,995.34
2018-06-18T03:08:34.423Z,995.32
2018-06-18T03:09:34.649Z,995.29
2018-06-18T03:10:34.881Z,995.27
2018-06-18T03:11:35.106Z,995.26
2018-06-18T03:12:35.334Z,995.27
2018-06-18T03:13:35.563Z,995.28
2018-06-18T03:14:35.786Z,995.26
2018-06-18T03:15:36.039Z,995.29
2018-06-18T03:16:36.266Z,995.27
2018-06-18T03:17:36.514Z,995.33
2018-06-18T03:18:36.712Z,995.32
2018-06-18T03:19:36.942Z,995.37
2018-06-18T03:20:37.163Z,995.44
2018-06-18T03:21:37.391Z,995.46
2018-06-18T03:22:37.621Z,995.49
2018-06-18T03:23:37.864Z,995.54
2018-06-18T03:24:38.077Z,995.53
2018-06-18T03:25:38.311Z,995.56
2018-06-18T03:26:38.535Z,995.53
2018-06-18T03:27:38.764Z,995.56
2018-06-18T03:28:38.992Z,995.52
2018-06-18T03:29:39.221Z,995.50
2018-06-18T03:30:39.452Z,995.45
2018-06-18T03:31:39.675Z,995.45
2018-06-18T03:32:39.901Z,995.42
2018-06-18T03:33:40.135Z,995.45
2018-06-18T03:34:40.361Z,995.42
2018-06-18T03:35:40.588Z,995.49
2018-06-18T03:36:40.816Z,995.48
2018-06-18T03:37:41.042Z,995.49
2018-06-18T03:38:41.274Z,995.47
2018-06-18T03:39:41.503Z,995.50
2018-06-18T03:40:41.729Z,995.50
2018-06-18T03:41:41.963Z,995.50
2018-06-18T03:42:42.186Z,995.49
2018-06-18T03:43:42.466Z,995.50
2018-06-18T03:44:42.652Z,995.50
2018-06-18T03:45:42.879Z,995.52
2018-06-18T03:46:43.108Z,995.50
2018-06-18T03:47:43.329Z,995.46
2018-06-18T03:48:43.558Z,995.44
2018-06-18T03:49:43.786Z,995.46
2018-06-18T03:50:44.025Z,995.45
2018-06-18T03:51:44.247Z,995.50
2018-06-18T03:52:44.471Z,995.52
2018-06-18T03:53:44.695Z,995.60
2018-06-18T03:54:44.924Z,995.58
2018-06-18T03:55:45.152Z,995.57
2018-06-18T03:56:45.396Z,995.54
2018-06-18T03:57:45.628Z,995.58
2018-06-18T03:58:45.854Z,995.60
2018-06-18T03:59:46.072Z,995.64
2018-06-18T04:00:46.305Z,995.60
2018-06-18T04:01:46.537Z,995.64
2018-06-18T04:02:46.765Z,995.67
2018-06-18T04:03:46.994Z,995.71
2018-06-18T04:04:47.224Z,995.69
2018-06-18T04:05:47.459Z,995.70
2018-06-18T04:06:47.684Z,995.75
2018-06-18T04:07:47.913Z,995.69
2018-06-18T04:08:48.141Z,995.67
2018-06-18T04:09:48.374Z,995.64
2018-06-18T04:10:48.606Z,995.64
2018-06-18T04:11:48.843Z,995.61
2018-06-18T04:12:49.062Z,995.64
2018-06-18T04:13:49.292Z,995.63
2018-06-18T04:14:49.521Z,995.66
2018-06-18T04:15:49.755Z,995.62
2018-06-18T04:16:49.986Z,995.61
2018-06-18T04:17:50.201Z,995.63
2018-06-18T04:18:50.453Z,995.66
2018-06-18T04:19:50.685Z,995.66
2018-06-18T04:20:50.916Z,995.62
2018-06-18T04:21:51.148Z,995.65
2018-06-18T04:22:51.379Z,995.62
2018-06-18T04:23:51.608Z,995.57
2018-06-18T04:24:51.846Z,995.59
2018-06-18T04:25:52.075Z,995.60
2018-06-18T04:26:52.304Z,995.59
2018-06-18T04:27:52.528Z,995.63
2018-06-18T04:28:52.763Z,995.62
2018-06-18T04:29:52.998Z,995.62
2018-06-18T04:30:53.226Z,995.63
2018-06-18T04:31:53.456Z,995.66
2018-06-18T04:32:53.684Z,995.71
2018-06-18T04:33:53.919Z,995.70
2018-06-18T04:34:54.144Z,995.64
2018-06-18T04:35:54.381Z,995.60
2018-06-18T04:36:54.609Z,995.56
2018-06-18T04:37:54.931Z,995.56
2018-06-18T04:38:55.072Z,995.56
2018-06-18T04:39:55.303Z,995.58
2018-06-18T04:40:55.534Z,995.56
2018-06-18T04:41:55.765Z,995.55
2018-06-18T04:42:55.992Z,995.52
2018-06-18T04:43:56.220Z,995.53
2018-06-18T04:44:56.455Z,995.49
2018-06-18T04:45:56.686Z,995.48
2018-06-18T04:46:56.918Z,995.47
2018-06-18T04:47:57.150Z,995.45
2018-06-18T04:48:57.374Z,995.48
2018-06-18T04:49:57.607Z,995.53
2018-06-18T04:50:57.840Z,995.56
2018-06-18T04:51:58.071Z,995.60
2018-06-18T04:52:58.305Z,995.58
2018-06-18T04:53:58.532Z,995.55
2018-06-18T04:54:58.770Z,995.54
2018-06-18T04:55:59.004Z,995.55
2018-06-18T04:56:59.239Z,995.53
2018-06-18T04:57:59.472Z,995.55
2018-06-18T04:58:59.706Z,995.57
2018-06-18T04:59:59.933Z,995.61
2018-06-18T05:01:00.172Z,995.59
2018-06-18T05:02:00.404Z,995.62
2018-06-18T05:03:00.635Z,995.60
2018-06-18T05:04:00.865Z,995.59
2018-06-18T05:05:01.095Z,995.62
2018-06-18T05:06:01.322Z,995.62
2018-06-18T05:07:01.551Z,995.65
2018-06-18T05:08:01.787Z,995.68
2018-06-18T05:09:02.011Z,995.69
2018-06-18T05:10:02.242Z,995.66
2018-06-18T05:11:02.475Z,995.72
2018-06-18T05:12:02.713Z,995.66
2018-06-18T05:13:03.009Z,995.68
2018-06-18T05:14:03.166Z,995.72
2018-06-18T05:15:03.400Z,995.74
2018-06-18T05:16:03.635Z,995.74
2018-06-18T05:17:03.883Z,995.68
2018-06-18T05:18:04.109Z,995.67
2018-06-18T05:19:04.315Z,995.70
2018-06-18T05:20:04.552Z,995.75
2018-06-18T05:21:04.800Z,995.75
2018-06-18T05:22:05.030Z,995.68
2018-06-18T05:23:05.269Z,995.72
2018-06-18T05:24:05.501Z,995.70
2018-06-18T05:25:05.717Z,995.73
2018-06-18T05:26:05.946Z,995.73
2018-06-18T05:27:06.189Z,995.76
2018-06-18T05:28:06.425Z,995.73
2018-06-18T05:29:06.637Z,995.73
2018-06-18T05:30:06.864Z,995.71
2018-06-18T05:31:07.095Z,995.72
2018-06-18T05:32:07.326Z,995.74
2018-06-18T05:33:07.562Z,995.68
2018-06-18T05:34:07.798Z,995.72
2018-06-18T05:35:08.016Z,995.70
2018-06-18T05:36:08.249Z,995.69
2018-06-18T05:37:08.482Z,995.70
2018-06-18T05:38:08.711Z,995.67
2018-06-18T05:39:08.945Z,995.71
2018-06-18T05:40:09.179Z,995.72
2018-06-18T05:41:09.404Z,995.76
2018-06-18T05:42:09.678Z,995.79
2018-06-18T05:43:09.863Z,995.81
2018-06-18T05:44:10.096Z,995.82
2018-06-18T05:45:10.337Z,995.81
2018-06-18T05:46:10.552Z,995.86
2018-06-18T05:47:10.773Z,995.85
2018-06-18T05:48:10.991Z,995.86
2018-06-18T05:49:11.235Z,995.87
2018-06-18T05:50:11.466Z,995.89
2018-06-18T05:51:11.684Z,995.91
2018-06-18T05:52:11.904Z,995.93
2018-06-18T05:53:12.135Z,995.98
2018-06-18T05:54:12.360Z,995.99
2018-06-18T05:55:12.584Z,995.92
2018-06-18T05:56:12.809Z,995.95
2018-06-18T05:57:13.035Z,995.95
2018-06-18T05:58:13.285Z,995.98
2018-06-18T05:59:13.490Z,995.98
2018-06-18T06:00:13.717Z,995.94
2018-06-18T06:01:13.958Z,995.91
2018-06-18T06:02:14.179Z,995.97
2018-06-18T06:03:14.433Z,995.97
2018-06-18T06:04:14.651Z,995.91
2018-06-18T06:05:14.865Z,995.98
2018-06-18T06:06:15.119Z,995.90
2018-06-18T06:07:15.333Z,995.97
2018-06-18T06:08:15.570Z,995.99
2018-06-18T06:09:15.791Z,996.02
2018-06-18T06:10:16.018Z,996.12
2018-06-18T06:11:16.259Z,996.05
2018-06-18T06:12:16.497Z,996.05
2018-06-18T06:13:16.698Z,996.05
2018-06-18T06:14:16.933Z,996.03
2018-06-18T06:15:17.194Z,995.99
2018-06-18T06:16:17.401Z,996.01
2018-06-18T06:17:17.666Z,995.96
2018-06-18T06:18:17.864Z,995.96
2018-06-18T06:19:18.103Z,995.97
2018-06-18T06:20:18.331Z,995.98
2018-06-18T06:21:18.553Z,996.02
2018-06-18T06:22:18.789Z,996.04
2018-06-18T06:23:19.012Z,996.04
2018-06-18T06:24:19.262Z,996.03
2018-06-18T06:25:19.477Z,996.04
2018-06-18T06:26:19.708Z,996.07
2018-06-18T06:27:19.927Z,996.07
2018-06-18T06:28:20.183Z,996.07
2018-06-18T06:29:20.432Z,996.03
2018-06-18T06:30:20.668Z,996.04
2018-06-18T06:31:20.877Z,996.04
2018-06-18T06:32:21.129Z,996.04
2018-06-18T06:33:21.325Z,996.04
2018-06-18T06:34:21.573Z,996.06
2018-06-18T06:35:21.810Z,996.06
2018-06-18T06:36:22.077Z,996.04
2018-06-18T06:37:22.340Z,996.00
2018-06-18T06:38:22.521Z,996.04
2018-06-18T06:39:22.770Z,996.03
2018-06-18T06:40:23.009Z,996.04
2018-06-18T06:41:23.226Z,996.09
2018-06-18T06:42:23.467Z,996.10
2018-06-18T06:43:23.676Z,996.15
2018-06-18T06:44:23.916Z,996.17
2018-06-18T06:45:24.142Z,996.24
2018-06-18T06:46:24.351Z,996.26
2018-06-18T06:47:24.611Z,996.25
2018-06-18T06:48:24.821Z,996.31
2018-06-18T06:49:25.052Z,996.32
2018-06-18T06:50:25.307Z,996.29
2018-06-18T06:51:25.503Z,996.27
2018-06-18T06:52:25.744Z,996.31
2018-06-18T06:53:25.971Z,996.34
2018-06-18T06:54:26.190Z,996.31
2018-06-18T06:55:26.428Z,996.28
2018-06-18T06:56:26.651Z,996.31
2018-06-18T06:57:26.867Z,996.33
2018-06-18T06:58:27.116Z,996.28
2018-06-18T06:59:27.329Z,996.31
2018-06-18T07:00:27.570Z,996.31
2018-06-18T07:01:27.814Z,996.30
2018-06-18T07:02:28.034Z,996.31
2018-06-18T07:03:28.287Z,996.33
2018-06-18T07:04:28.501Z,996.32
2018-06-18T07:05:28.731Z,996.29
2018-06-18T07:06:28.970Z,996.32
2018-06-18T07:07:29.193Z,996.28
2018-06-18T07:08:29.419Z,996.29
2018-06-18T07:09:29.678Z,996.28
2018-06-18T07:10:29.904Z,996.27
2018-06-18T07:11:30.164Z,996.28
2018-06-18T07:12:30.376Z,996.28
2018-06-18T07:13:30.679Z,996.30
2018-06-18T07:14:30.814Z,996.27
2018-06-18T07:15:31.048Z,996.33
2018-06-18T07:16:31.289Z,996.31
2018-06-18T07:17:31.508Z,996.33
2018-06-18T07:18:31.751Z,996.27
2018-06-18T07:19:31.984Z,996.30
2018-06-18T07:20:32.209Z,996.29
2018-06-18T07:21:32.457Z,996.30
2018-06-18T07:22:32.722Z,996.29
2018-06-18T07:23:32.903Z,996.29
2018-06-18T07:24:33.121Z,996.26
2018-06-18T07:25:33.350Z,996.30
2018-06-18T07:26:33.598Z,996.32
2018-06-18T07:27:33.817Z,996.31
2018-06-18T07:28:34.047Z,996.32
2018-06-18T07:29:34.296Z,996.36
2018-06-18T07:30:34.636Z,996.36
2018-06-18T07:31:34.725Z,996.34
2018-06-18T07:32:34.960Z,996.30
2018-06-18T07:33:35.186Z,996.34
2018-06-18T07:34:35.430Z,996.35
2018-06-18T07:35:35.665Z,996.35
2018-06-18T07:36:35.906Z,996.38
2018-06-18T07:37:36.128Z,996.39
2018-06-18T07:38:36.392Z,996.41
2018-06-18T07:39:36.591Z,996.36
2018-06-18T07:40:36.824Z,996.39
2018-06-18T07:41:37.054Z,996.35
2018-06-18T07:42:37.290Z,996.42
2018-06-18T07:43:37.521Z,996.37
2018-06-18T07:44:37.756Z,996.40
2018-06-18T07:45:38.048Z,996.41
2018-06-18T07:46:38.222Z,996.41
2018-06-18T07:47:38.455Z,996.47
2018-06-18T07:48:38.693Z,996.47
2018-06-18T07:49:38.914Z,996.47
2018-06-18T07:50:39.147Z,996.48
2018-06-18T07:51:39.430Z,996.50
2018-06-18T07:52:39.615Z,996.52
2018-06-18T07:53:39.852Z,996.55
2018-06-18T07:54:40.092Z,996.55
2018-06-18T07:55:40.319Z,996.54
2018-06-18T07:56:40.556Z,996.55
2018-06-18T07:57:40.822Z,996.54
2018-06-18T07:58:41.065Z,996.54
2018-06-18T07:59:41.240Z,996.54
2018-06-18T08:00:41.475Z,996.55
2018-06-18T08:01:41.709Z,996.56
2018-06-18T08:02:41.937Z,996.56
2018-06-18T08:03:42.227Z,996.58
2018-06-18T08:04:42.404Z,996.58
2018-06-18T08:05:42.637Z,996.57
2018-06-18T08:06:42.878Z,996.55
2018-06-18T08:07:43.104Z,996.60
2018-06-18T08:08:43.339Z,996.55
2018-06-18T08:09:43.610Z,996.54
2018-06-18T08:10:43.798Z,996.57
2018-06-18T08:11:44.038Z,996.59
2018-06-18T08:12:44.266Z,996.61
2018-06-18T08:13:44.483Z,996.62
2018-06-18T08:14:44.715Z,996.66
2018-06-18T08:15:44.949Z,996.64
2018-06-18T08:16:45.184Z,996.68
2018-06-18T08:17:45.413Z,996.67
2018-06-18T08:18:45.645Z,996.65
2018-06-18T08:19:45.879Z,996.65
2018-06-18T08:20:46.113Z,996.63
2018-06-18T08:21:46.351Z,996.66
2018-06-18T08:22:46.578Z,996.68
2018-06-18T08:23:46.837Z,996.68
2018-06-18T08:24:47.043Z,996.71
2018-06-18T08:25:47.276Z,996.72
2018-06-18T08:26:47.517Z,996.72
2018-06-18T08:27:47.743Z,996.72
2018-06-18T08:28:47.984Z,996.69
2018-06-18T08:29:48.214Z,996.68
2018-06-18T08:30:48.446Z,996.65
2018-06-18T08:31:48.681Z,996.62
2018-06-18T08:32:48.917Z,996.61
2018-06-18T08:33:49.151Z,996.61
2018-06-18T08:34:49.400Z,996.66
2018-06-18T08:35:49.620Z,996.61
2018-06-18T08:36:49.861Z,996.56
2018-06-18T08:37:50.079Z,996.55
2018-06-18T08:38:50.314Z,996.60
2018-06-18T08:39:50.544Z,996.58
2018-06-18T08:40:50.783Z,996.61
2018-06-18T08:41:51.005Z,996.61
2018-06-18T08:42:51.254Z,996.67
2018-06-18T08:43:51.487Z,996.69
2018-06-18T08:44:51.727Z,996.70
2018-06-18T08:45:51.948Z,996.73
2018-06-18T08:46:52.187Z,996.72
2018-06-18T08:47:52.427Z,996.73
2018-06-18T08:48:52.665Z,996.74
2018-06-18T08:49:52.893Z,996.73
2018-06-18T08:50:53.129Z,996.73
2018-06-18T08:51:53.384Z,996.74
2018-06-18T08:52:53.587Z,996.71
2018-06-18T08:53:53.827Z,996.76
2018-06-18T08:54:54.058Z,996.73
2018-06-18T08:55:54.265Z,996.76
2018-06-18T08:56:54.521Z,996.75
2018-06-18T08:57:54.767Z,996.72
2018-06-18T08:58:54.986Z,996.72
2018-06-18T08:59:55.217Z,996.74
2018-06-18T09:00:55.454Z,996.71
2018-06-18T09:01:55.695Z,996.70
2018-06-18T09:02:55.925Z,996.66
2018-06-18T09:03:56.161Z,996.74
2018-06-18T09:04:56.392Z,996.74
2018-06-18T09:05:56.629Z,996.73
2018-06-18T09:06:56.864Z,996.68
2018-06-18T09:07:57.093Z,996.67
2018-06-18T09:08:57.331Z,996.67
2018-06-18T09:09:57.563Z,996.63
2018-06-18T09:10:57.799Z,996.65
2018-06-18T09:11:58.028Z,996.63
2018-06-18T09:12:58.266Z,996.67
2018-06-18T09:13:58.498Z,996.68
2018-06-18T09:14:58.730Z,996.66
2018-06-18T09:15:58.997Z,996.70
2018-06-18T09:16:59.202Z,996.71
2018-06-18T09:17:59.433Z,996.70
2018-06-18T09:18:59.664Z,996.66
2018-06-18T09:19:59.901Z,996.59
2018-06-18T09:21:00.134Z,996.58
2018-06-18T09:22:00.365Z,996.63
2018-06-18T09:23:00.600Z,996.62
2018-06-18T09:24:00.830Z,996.70
2018-06-18T09:25:01.064Z,996.72
2018-06-18T09:26:01.301Z,996.73
2018-06-18T09:27:01.533Z,996.66
2018-06-18T09:28:01.762Z,996.66
2018-06-18T09:29:01.993Z,996.67
2018-06-18T09:30:02.230Z,996.64
2018-06-18T09:31:02.464Z,996.63
2018-06-18T09:32:02.771Z,996.62
2018-06-18T09:33:02.927Z,996.61
2018-06-18T09:34:03.165Z,996.64
2018-06-18T09:35:03.392Z,996.61
2018-06-18T09:36:03.622Z,996.64
2018-06-18T09:37:03.850Z,996.64
2018-06-18T09:38:04.093Z,996.67
2018-06-18T09:39:04.338Z,996.66
2018-06-18T09:40:04.548Z,996.71
2018-06-18T09:41:04.780Z,996.63
2018-06-18T09:42:05.017Z,996.57
2018-06-18T09:43:05.257Z,996.58
2018-06-18T09:44:05.486Z,996.60
2018-06-18T09:45:05.728Z,996.63
2018-06-18T09:46:05.952Z,996.60
2018-06-18T09:47:06.186Z,996.59
2018-06-18T09:48:06.439Z,996.58
2018-06-18T09:49:06.659Z,996.60
2018-06-18T09:50:06.894Z,996.66
2018-06-18T09:51:07.127Z,996.64
2018-06-18T09:52:07.365Z,996.63
2018-06-18T09:53:07.636Z,996.62
2018-06-18T09:54:07.837Z,996.62
2018-06-18T09:55:08.058Z,996.58
2018-06-18T09:56:08.298Z,996.51
2018-06-18T09:57:08.537Z,996.56
2018-06-18T09:58:08.770Z,996.49
2018-06-18T09:59:09.007Z,996.49
2018-06-18T10:00:09.243Z,996.44
2018-06-18T10:01:09.478Z,996.42
2018-06-18T10:02:09.727Z,996.40
2018-06-18T10:03:09.946Z,996.45
2018-06-18T10:04:10.173Z,996.45
2018-06-18T10:05:10.413Z,996.44
2018-06-18T10:06:10.645Z,996.46
2018-06-18T10:07:10.890Z,996.43
2018-06-18T10:08:11.161Z,996.44
2018-06-18T10:09:11.343Z,996.42
2018-06-18T10:10:11.579Z,996.46
2018-06-18T10:11:11.811Z,996.47
2018-06-18T10:12:12.057Z,996.48
2018-06-18T10:13:12.287Z,996.50
2018-06-18T10:14:12.544Z,996.48
2018-06-18T10:15:12.785Z,996.51
2018-06-18T10:16:13.057Z,996.52
2018-06-18T10:17:13.290Z,996.53
2018-06-18T10:18:13.527Z,996.50
2018-06-18T10:19:13.756Z,996.53
2018-06-18T10:20:13.988Z,996.51
2018-06-18T10:21:14.228Z,996.53
2018-06-18T10:22:14.467Z,996.53
2018-06-18T10:23:14.698Z,996.49
2018-06-18T10:24:14.979Z,996.49
2018-06-18T10:25:15.172Z,996.49
2018-06-18T10:26:15.406Z,996.45
2018-06-18T10:27:15.686Z,996.44
2018-06-18T10:28:15.880Z,996.42
2018-06-18T10:29:16.099Z,996.46
2018-06-18T10:30:16.334Z,996.37
2018-06-18T10:31:16.585Z,996.40
2018-06-18T10:32:16.803Z,996.37
2018-06-18T10:33:17.031Z,996.41
2018-06-18T10:34:17.263Z,996.38
2018-06-18T10:35:17.507Z,996.41
2018-06-18T10:36:17.730Z,996.38
2018-06-18T10:37:17.962Z,996.39
2018-06-18T10:38:18.202Z,996.39
2018-06-18T10:39:18.447Z,996.42
2018-06-18T10:40:18.676Z,996.46
2018-06-18T10:41:18.907Z,996.45
2018-06-18T10:42:19.154Z,996.46
2018-06-18T10:43:19.368Z,996.46
2018-06-18T10:44:19.623Z,996.45
2018-06-18T10:45:19.835Z,996.47
2018-06-18T10:46:20.054Z,996.47
2018-06-18T10:47:20.297Z,996.46
2018-06-18T10:48:20.513Z,996.47
2018-06-18T10:49:20.742Z,996.44
2018-06-18T10:50:20.998Z,996.41
2018-06-18T10:51:21.216Z,996.43
2018-06-18T10:52:21.445Z,996.37
2018-06-18T10:53:21.674Z,996.39
2018-06-18T10:54:21.911Z,996.42
2018-06-18T10:55:22.135Z,996.47
2018-06-18T10:56:22.378Z,996.46
2018-06-18T10:57:22.613Z,996.45
2018-06-18T10:58:22.847Z,996.42
2018-06-18T10:59:23.080Z,996.47
2018-06-18T11:00:23.318Z,996.47
2018-06-18T11:01:23.557Z,996.49
2018-06-18T11:02:23.780Z,996.43
2018-06-18T11:03:24.028Z,996.47
2018-06-18T11:04:24.259Z,996.45
2018-06-18T11:05:24.491Z,996.42
2018-06-18T11:06:24.726Z,996.41
2018-06-18T11:07:24.966Z,996.40
2018-06-18T11:08:25.205Z,996.37
2018-06-18T11:09:25.432Z,996.35
2018-06-18T11:10:25.671Z,996.33
2018-06-18T11:11:25.902Z,996.36
2018-06-18T11:12:26.138Z,996.38
2018-06-18T11:13:26.384Z,996.31
2018-06-18T11:14:26.664Z,996.34
2018-06-18T11:15:26.850Z,996.36
2018-06-18T11:16:27.306Z,996.40
2018-06-18T11:17:27.585Z,996.42
2018-06-18T11:18:27.548Z,996.43
2018-06-18T11:19:27.782Z,996.43
2018-06-18T11:20:28.023Z,996.38
2018-06-18T11:21:28.263Z,996.38
2018-06-18T11:22:28.489Z,996.35
2018-06-18T11:23:28.725Z,996.37
2018-06-18T11:24:28.997Z,996.38
2018-06-18T11:25:29.195Z,996.40
2018-06-18T11:26:29.463Z,996.40
2018-06-18T11:27:29.664Z,996.35
2018-06-18T11:28:30.001Z,996.34
2018-06-18T11:29:30.139Z,996.34
2018-06-18T11:30:30.372Z,996.37
2018-06-18T11:31:30.602Z,996.37
2018-06-18T11:32:30.845Z,996.33
2018-06-18T11:33:31.075Z,996.27
2018-06-18T11:34:31.312Z,996.27
2018-06-18T11:35:31.599Z,996.27
2018-06-18T11:36:31.782Z,996.23
2018-06-18T11:37:32.018Z,996.20
2018-06-18T11:38:32.254Z,996.24
2018-06-18T11:39:32.546Z,996.22
2018-06-18T11:40:32.713Z,996.21
2018-06-18T11:41:32.952Z,996.22
2018-06-18T11:42:33.188Z,996.20
2018-06-18T11:43:33.472Z,996.19
2018-06-18T11:44:33.650Z,996.25
2018-06-18T11:45:33.886Z,996.22
2018-06-18T11:46:34.121Z,996.21
2018-06-18T11:47:34.358Z,996.23
2018-06-18T11:48:34.592Z,996.25
2018-06-18T11:49:34.825Z,996.28
2018-06-18T11:50:35.060Z,996.23
2018-06-18T11:51:35.298Z,996.24
2018-06-18T11:52:35.600Z,996.21
2018-06-18T11:53:35.771Z,996.25
2018-06-18T11:54:36.012Z,996.28
2018-06-18T11:55:36.248Z,996.30
2018-06-18T11:56:36.485Z,996.32
2018-06-18T11:57:36.721Z,996.26
2018-06-18T11:58:36.951Z,996.22
2018-06-18T11:59:37.186Z,996.24
2018-06-18T12:00:37.431Z,996.25
2018-06-18T12:01:37.655Z,996.21
2018-06-18T12:02:37.888Z,996.28
2018-06-18T12:03:38.124Z,996.30
2018-06-18T12:04:38.365Z,996.30
2018-06-18T12:05:38.596Z,996.31
2018-06-18T12:06:38.831Z,996.30
2018-06-18T12:07:39.053Z,996.28
2018-06-18T12:08:39.288Z,996.31
2018-06-18T12:09:39.544Z,996.29
2018-06-18T12:10:39.761Z,996.27
2018-06-18T12:11:39.990Z,996.27
2018-06-18T12:12:40.228Z,996.29
2018-06-18T12:13:40.458Z,996.31
2018-06-18T12:14:40.696Z,996.24
2018-06-18T12:15:40.925Z,996.28
2018-06-18T12:16:41.188Z,996.23
2018-06-18T12:17:41.396Z,996.26
2018-06-18T12:18:41.620Z,996.22
2018-06-18T12:19:41.862Z,996.23
2018-06-18T12:20:42.092Z,996.26
2018-06-18T12:21:42.330Z,996.23
2018-06-18T12:22:42.562Z,996.24
2018-06-18T12:23:42.799Z,996.24
2018-06-18T12:24:43.047Z,996.23
2018-06-18T12:25:43.275Z,996.23
2018-06-18T12:26:43.510Z,996.22
2018-06-18T12:27:43.748Z,996.21
2018-06-18T12:28:43.979Z,996.18
2018-06-18T12:29:44.214Z,996.17
2018-06-18T12:30:44.449Z,996.15
2018-06-18T12:31:44.687Z,996.11